createdAt,value
2023-04-22T00:01:42.632Z,10.53
2023-04-22T00:04:11.408Z,10.52
2023-04-22T00:06:41.058Z,10.49
2023-04-22T00:09:09.647Z,10.47
2023-04-22T00:11:37.587Z,10.45
2023-04-22T00:14:06.079Z,10.42
2023-04-22T00:16:34.082Z,10.37
2023-04-22T00:19:02.105Z,10.33
2023-04-22T00:21:30.149Z,10.29
2023-04-22T00:23:59.481Z,10.24
2023-04-22T00:26:27.436Z,10.20
2023-04-22T00:28:55.384Z,10.18
2023-04-22T00:31:23.476Z,10.16
2023-04-22T00:33:51.441Z,10.15
2023-04-22T00:36:19.448Z,10.11
2023-04-22T00:38:49.482Z,10.09
2023-04-22T00:41:18.818Z,10.06
2023-04-22T00:43:46.718Z,10.05
2023-04-22T00:46:15.259Z,10.04
2023-04-22T00:48:43.291Z,10.01
2023-04-22T00:51:11.374Z,9.99
2023-04-22T00:53:39.347Z,9.98
2023-04-22T00:56:07.902Z,9.96
2023-04-22T00:58:37.237Z,9.98
2023-04-22T01:01:05.451Z,9.97
2023-04-22T01:03:33.841Z,9.95
2023-04-22T01:06:01.869Z,9.95
2023-04-22T01:08:29.967Z,9.97
2023-04-22T01:10:58.084Z,9.97
2023-04-22T01:13:26.079Z,9.95
2023-04-22T01:15:55.784Z,9.96
2023-04-22T01:18:23.935Z,9.97
2023-04-22T01:20:52.065Z,9.96
2023-04-22T01:23:21.948Z,9.97
2023-04-22T01:25:50.025Z,9.99
2023-04-22T01:28:18.193Z,10.02
2023-04-22T01:30:46.169Z,10.03
2023-04-22T01:33:14.195Z,10.04
2023-04-22T01:35:42.254Z,10.03
2023-04-22T01:38:11.142Z,10.05
2023-04-22T01:40:42.049Z,10.10
2023-04-22T01:43:09.998Z,10.11
2023-04-22T01:45:38.092Z,10.17
2023-04-22T01:48:07.406Z,10.22
2023-04-22T01:50:35.528Z,10.25
2023-04-22T01:53:03.526Z,10.27
2023-04-22T01:55:36.075Z,10.31
2023-04-22T01:58:05.721Z,10.28
2023-04-22T02:00:33.896Z,10.23
2023-04-22T02:03:02.061Z,10.15
2023-04-22T02:05:30.278Z,10.05
2023-04-22T02:07:58.542Z,9.98
2023-04-22T02:10:26.685Z,9.94
2023-04-22T02:12:54.601Z,9.96
2023-04-22T02:15:24.034Z,9.97
2023-04-22T02:17:55.355Z,10.00
2023-04-22T02:20:23.554Z,10.00
2023-04-22T02:22:51.687Z,9.95
2023-04-22T02:25:21.242Z,9.94
2023-04-22T02:27:51.253Z,9.93
2023-04-22T02:30:19.296Z,9.93
2023-04-22T02:32:48.651Z,9.93
2023-04-22T02:35:16.588Z,9.99
2023-04-22T02:37:44.636Z,10.01
2023-04-22T02:40:13.343Z,10.00
2023-04-22T02:42:41.329Z,10.00
2023-04-22T02:45:10.157Z,9.96
2023-04-22T02:47:38.775Z,9.92
2023-04-22T02:50:09.734Z,9.91
2023-04-22T02:52:37.866Z,9.92
2023-04-22T02:55:06.491Z,9.92
2023-04-22T02:57:34.517Z,9.90
2023-04-22T03:00:04.300Z,9.90
2023-04-22T03:02:32.533Z,9.89
2023-04-22T03:05:11.575Z,9.86
2023-04-22T03:07:39.983Z,9.82
2023-04-22T03:10:09.361Z,9.76
2023-04-22T03:12:37.302Z,9.73
2023-04-22T03:15:06.105Z,9.67
2023-04-22T03:17:34.777Z,9.66
2023-04-22T03:20:07.742Z,9.65
2023-04-22T03:22:37.162Z,9.66
2023-04-22T03:25:07.157Z,9.62
2023-04-22T03:27:35.502Z,9.54
2023-04-22T03:30:03.531Z,9.48
2023-04-22T03:32:31.556Z,9.38
2023-04-22T03:35:21.686Z,9.25
2023-04-22T03:37:52.869Z,9.17
2023-04-22T03:40:27.254Z,9.12
2023-04-22T03:42:55.622Z,9.14
2023-04-22T03:45:23.862Z,9.19
2023-04-22T03:48:04.010Z,9.23
2023-04-22T03:50:40.006Z,9.27
2023-04-22T03:53:09.916Z,9.32
2023-04-22T03:55:39.323Z,9.34
2023-04-22T03:58:07.479Z,9.38
2023-04-22T04:00:35.812Z,9.37
2023-04-22T04:03:10.444Z,9.34
2023-04-22T04:05:38.744Z,9.29
2023-04-22T04:08:06.837Z,9.26
2023-04-22T04:10:37.200Z,9.26
2023-04-22T04:13:06.028Z,9.27
2023-04-22T04:15:42.944Z,9.29
2023-04-22T04:18:11.676Z,9.32
2023-04-22T04:20:39.834Z,9.35
2023-04-22T04:23:08.293Z,9.38
2023-04-22T04:25:39.113Z,9.38
2023-04-22T04:28:12.070Z,9.38
2023-04-22T04:30:41.703Z,9.40
2023-04-22T04:33:10.169Z,9.40
2023-04-22T04:35:39.727Z,9.41
2023-04-22T04:38:09.332Z,9.43
2023-04-22T04:40:39.278Z,9.44
2023-04-22T04:43:12.922Z,9.48
2023-04-22T04:45:48.878Z,9.49
2023-04-22T04:48:24.979Z,9.51
2023-04-22T04:50:56.674Z,9.47
2023-04-22T04:53:27.417Z,9.46
2023-04-22T04:55:57.855Z,9.47
2023-04-22T04:58:28.192Z,9.51
2023-04-22T05:01:09.248Z,9.56
2023-04-22T05:03:37.538Z,9.56
2023-04-22T05:06:07.994Z,9.53
2023-04-22T05:08:38.182Z,9.53
2023-04-22T05:11:11.349Z,9.53
2023-04-22T05:13:39.500Z,9.54
2023-04-22T05:16:10.155Z,9.59
2023-04-22T05:18:40.213Z,9.64
2023-04-22T05:21:10.299Z,9.70
2023-04-22T05:23:38.372Z,9.76
2023-04-22T05:26:07.528Z,9.78
2023-04-22T05:28:38.778Z,9.78
2023-04-22T05:31:06.868Z,9.83
2023-04-22T05:33:35.006Z,9.85
2023-04-22T05:36:03.070Z,9.90
2023-04-22T05:38:31.018Z,9.88
2023-04-22T05:40:59.072Z,9.87
2023-04-22T05:43:27.111Z,9.87
2023-04-22T05:46:03.539Z,9.91
2023-04-22T05:48:32.757Z,9.96
2023-04-22T05:51:04.498Z,9.99
2023-04-22T05:53:32.438Z,10.01
2023-04-22T05:56:02.398Z,10.03
2023-04-22T05:58:30.367Z,10.01
2023-04-22T06:01:09.164Z,9.99
2023-04-22T06:04:00.749Z,9.91
2023-04-22T06:06:29.663Z,9.86
2023-04-22T06:08:58.039Z,9.83
2023-04-22T06:11:26.039Z,9.82
2023-04-22T06:13:55.050Z,9.84
2023-04-22T06:16:24.773Z,9.87
2023-04-22T06:18:52.757Z,9.86
2023-04-22T06:21:23.427Z,9.88
2023-04-22T06:23:51.398Z,9.90
2023-04-22T06:26:19.399Z,9.93
2023-04-22T06:28:47.351Z,9.97
2023-04-22T06:31:21.027Z,10.00
2023-04-22T06:33:50.940Z,10.06
2023-04-22T06:36:20.259Z,10.11
2023-04-22T06:38:54.485Z,10.18
2023-04-22T06:41:34.551Z,10.26
2023-04-22T06:44:09.724Z,10.30
2023-04-22T06:46:54.708Z,10.37
2023-04-22T06:49:45.058Z,10.43
2023-04-22T06:52:27.757Z,10.55
2023-04-22T06:54:58.603Z,10.69
2023-04-22T06:57:26.669Z,10.83
2023-04-22T06:59:54.616Z,10.94
2023-04-22T07:02:23.799Z,11.08
2023-04-22T07:04:53.544Z,11.19
2023-04-22T07:07:21.786Z,11.31
2023-04-22T07:09:50.293Z,11.44
2023-04-22T07:12:18.233Z,11.57
2023-04-22T07:14:46.440Z,11.70
2023-04-22T07:17:14.487Z,11.85
2023-04-22T07:19:42.476Z,11.97
2023-04-22T07:22:12.253Z,12.09
2023-04-22T07:24:41.052Z,12.25
2023-04-22T07:27:08.965Z,12.39
2023-04-22T07:29:37.115Z,12.53
2023-04-22T07:32:05.410Z,12.68
2023-04-22T07:34:33.690Z,12.82
2023-04-22T07:37:01.685Z,12.94
2023-04-22T07:39:31.062Z,13.07
2023-04-22T07:41:59.202Z,13.16
2023-04-22T07:44:27.223Z,13.26
2023-04-22T07:46:55.610Z,13.33
2023-04-22T07:49:24.097Z,13.42
2023-04-22T07:51:52.355Z,13.47
2023-04-22T07:54:20.606Z,13.55
2023-04-22T07:56:49.971Z,13.59
2023-04-22T07:59:17.984Z,13.63
2023-04-22T08:01:47.127Z,13.67
2023-04-22T08:04:15.406Z,13.74
2023-04-22T08:06:43.655Z,13.77
2023-04-22T08:09:11.607Z,13.74
2023-04-22T08:11:39.661Z,13.68
2023-04-22T08:14:09.082Z,13.67
2023-04-22T08:16:36.999Z,13.71
2023-04-22T08:19:05.131Z,13.76
2023-04-22T08:21:33.135Z,13.82
2023-04-22T08:24:01.127Z,13.91
2023-04-22T08:26:29.105Z,13.97
2023-04-22T08:28:57.124Z,14.07
2023-04-22T08:31:26.480Z,14.18
2023-04-22T08:33:54.656Z,14.35
2023-04-22T08:36:25.822Z,14.51
2023-04-22T08:38:54.659Z,14.68
2023-04-22T08:41:24.519Z,14.81
2023-04-22T08:43:52.616Z,15.00
2023-04-22T08:46:21.091Z,15.20
2023-04-22T08:48:50.546Z,15.43
2023-04-22T08:51:18.984Z,15.60
2023-04-22T08:53:47.072Z,15.73
2023-04-22T08:56:37.303Z,15.85
2023-04-22T08:59:07.153Z,15.90
2023-04-22T09:01:36.417Z,15.93
2023-04-22T09:04:05.940Z,15.90
2023-04-22T09:06:34.394Z,15.91
2023-04-22T09:09:02.457Z,15.90
2023-04-22T09:11:32.734Z,15.95
2023-04-22T09:14:00.705Z,15.96
2023-04-22T09:16:29.875Z,15.92
2023-04-22T09:18:58.247Z,15.91
2023-04-22T09:21:28.826Z,15.85
2023-04-22T09:23:57.626Z,15.79
2023-04-22T09:26:26.904Z,15.71
2023-04-22T09:28:56.016Z,15.67
2023-04-22T09:31:24.124Z,15.60
2023-04-22T09:33:53.375Z,15.57
2023-04-22T09:36:25.136Z,15.52
2023-04-22T09:38:56.134Z,15.50
2023-04-22T09:41:30.751Z,15.46
2023-04-22T09:43:59.019Z,15.40
2023-04-22T09:46:28.349Z,15.31
2023-04-22T09:48:57.578Z,15.22
2023-04-22T09:51:25.665Z,15.13
2023-04-22T09:54:08.776Z,15.05
2023-04-22T09:56:45.171Z,15.00
2023-04-22T09:59:13.734Z,14.99
2023-04-22T10:01:44.531Z,14.97
2023-04-22T10:04:15.472Z,14.99
2023-04-22T10:06:44.372Z,14.96
2023-04-22T10:09:24.960Z,15.00
2023-04-22T10:11:55.849Z,15.05
2023-04-22T10:14:24.160Z,15.05
2023-04-22T10:16:56.490Z,15.05
2023-04-22T10:19:26.119Z,15.08
2023-04-22T10:21:55.823Z,15.13
2023-04-22T10:24:26.970Z,15.15
2023-04-22T10:26:57.698Z,15.19
2023-04-22T10:29:26.616Z,15.22
2023-04-22T10:31:57.239Z,15.23
2023-04-22T10:34:25.530Z,15.28
2023-04-22T10:36:57.591Z,15.31
2023-04-22T10:39:27.469Z,15.41
2023-04-22T10:42:07.389Z,15.49
2023-04-22T10:44:47.617Z,15.59
2023-04-22T10:47:26.174Z,15.64
2023-04-22T10:50:09.832Z,15.68
2023-04-22T10:52:38.206Z,15.76
2023-04-22T10:55:07.909Z,15.84
2023-04-22T10:57:40.169Z,15.95
2023-04-22T11:00:28.035Z,16.06
2023-04-22T11:03:18.779Z,16.15
2023-04-22T11:05:48.225Z,16.22
2023-04-22T11:08:20.628Z,16.26
2023-04-22T11:10:50.907Z,16.29
2023-04-22T11:13:21.080Z,16.27
2023-04-22T11:15:50.121Z,16.23
2023-04-22T11:18:22.111Z,16.23
2023-04-22T11:20:50.777Z,16.26
2023-04-22T11:23:20.687Z,16.31
2023-04-22T11:25:54.708Z,16.32
2023-04-22T11:28:23.506Z,16.30
2023-04-22T11:30:51.469Z,16.24
2023-04-22T11:33:20.071Z,16.24
2023-04-22T11:35:50.484Z,16.19
2023-04-22T11:38:18.799Z,16.18
2023-04-22T11:40:47.418Z,16.16
2023-04-22T11:43:18.645Z,16.14
2023-04-22T11:45:46.789Z,16.09
2023-04-22T11:48:15.621Z,16.07
2023-04-22T11:50:44.699Z,16.07
2023-04-22T11:53:16.696Z,16.08
2023-04-22T11:55:45.364Z,16.09
2023-04-22T11:58:15.408Z,16.07
2023-04-22T12:00:45.482Z,16.03
2023-04-22T12:03:15.625Z,15.98
2023-04-22T12:05:44.524Z,15.95
2023-04-22T12:08:13.420Z,15.94
2023-04-22T12:10:42.708Z,15.95
2023-04-22T12:13:10.958Z,15.99
2023-04-22T12:15:44.230Z,16.02
2023-04-22T12:18:13.226Z,16.01
2023-04-22T12:20:42.011Z,15.99
2023-04-22T12:23:14.870Z,15.86
2023-04-22T12:25:43.055Z,15.72
2023-04-22T12:28:11.973Z,15.65
2023-04-22T12:30:40.040Z,15.65
2023-04-22T12:33:10.243Z,15.63
2023-04-22T12:35:38.183Z,15.63
2023-04-22T12:38:06.151Z,15.64
2023-04-22T12:40:34.122Z,15.65
2023-04-22T12:43:05.941Z,15.71
2023-04-22T12:45:35.287Z,15.73
2023-04-22T12:48:03.229Z,15.83
2023-04-22T12:50:32.603Z,15.87
2023-04-22T12:53:00.695Z,15.91
2023-04-22T12:55:28.928Z,15.90
2023-04-22T12:57:57.087Z,15.93
2023-04-22T13:00:25.516Z,15.96
2023-04-22T13:02:54.224Z,16.06
2023-04-22T13:05:24.509Z,16.15
2023-04-22T13:08:05.852Z,16.24
2023-04-22T13:10:35.021Z,16.40
2023-04-22T13:13:17.099Z,16.56
2023-04-22T13:15:47.229Z,16.67
2023-04-22T13:18:16.531Z,16.68
2023-04-22T13:20:44.549Z,16.65
2023-04-22T13:23:15.550Z,16.59
2023-04-22T13:25:43.633Z,16.54
2023-04-22T13:28:12.382Z,16.52
2023-04-22T13:30:43.118Z,16.44
2023-04-22T13:33:11.238Z,16.42
2023-04-22T13:35:43.443Z,16.41
2023-04-22T13:38:11.758Z,16.46
2023-04-22T13:40:41.466Z,16.46
2023-04-22T13:43:09.806Z,16.46
2023-04-22T13:45:38.111Z,16.41
2023-04-22T13:48:07.697Z,16.42
2023-04-22T13:50:36.078Z,16.36
2023-04-22T13:53:05.164Z,16.34
2023-04-22T13:55:33.519Z,16.30
2023-04-22T13:58:03.250Z,16.25
2023-04-22T14:00:32.094Z,16.23
2023-04-22T14:03:02.385Z,16.29
2023-04-22T14:05:30.825Z,16.37
2023-04-22T14:08:01.173Z,16.45
2023-04-22T14:10:29.310Z,16.51
2023-04-22T14:12:57.728Z,16.56
2023-04-22T14:15:27.123Z,16.60
2023-04-22T14:17:55.123Z,16.65
2023-04-22T14:20:25.285Z,16.68
2023-04-22T14:22:53.439Z,16.68
2023-04-22T14:25:21.525Z,16.62
2023-04-22T14:27:49.568Z,16.62
2023-04-22T14:30:18.004Z,16.56
2023-04-22T14:32:47.343Z,16.50
2023-04-22T14:35:15.620Z,16.45
2023-04-22T14:37:45.058Z,16.40
2023-04-22T14:40:13.551Z,16.34
2023-04-22T14:42:41.636Z,16.35
2023-04-22T14:45:11.002Z,16.33
2023-04-22T14:47:39.184Z,16.35
2023-04-22T14:50:09.823Z,16.36
2023-04-22T14:52:37.819Z,16.37
2023-04-22T14:55:19.595Z,16.40
2023-04-22T14:57:51.049Z,16.38
2023-04-22T15:00:19.620Z,16.38
2023-04-22T15:02:47.730Z,16.39
2023-04-22T15:05:17.114Z,16.38
2023-04-22T15:07:45.198Z,16.38
2023-04-22T15:10:18.100Z,16.37
2023-04-22T15:12:46.410Z,16.42
2023-04-22T15:15:16.170Z,16.43
2023-04-22T15:17:44.615Z,16.42
2023-04-22T15:20:14.892Z,16.40
2023-04-22T15:22:47.236Z,16.35
2023-04-22T15:25:17.932Z,16.28
2023-04-22T15:27:47.019Z,16.21
2023-04-22T15:30:15.156Z,16.09
2023-04-22T15:32:43.370Z,15.96
2023-04-22T15:35:12.011Z,15.93
2023-04-22T15:37:40.331Z,15.87
2023-04-22T15:40:11.547Z,15.81
2023-04-22T15:42:40.077Z,15.78
2023-04-22T15:45:09.060Z,15.76
2023-04-22T15:47:37.324Z,15.81
2023-04-22T15:50:09.491Z,15.84
2023-04-22T15:52:38.523Z,15.89
2023-04-22T15:55:08.024Z,15.93
2023-04-22T15:57:37.579Z,15.94
2023-04-22T16:00:13.449Z,15.96
2023-04-22T16:02:42.386Z,15.96
2023-04-22T16:05:11.466Z,15.96
2023-04-22T16:07:40.756Z,15.93
2023-04-22T16:10:10.160Z,15.91
2023-04-22T16:12:39.678Z,15.92
2023-04-22T16:15:10.139Z,15.89
2023-04-22T16:17:38.336Z,15.88
2023-04-22T16:20:08.487Z,15.82
2023-04-22T16:22:37.552Z,15.78
2023-04-22T16:25:06.381Z,15.75
2023-04-22T16:27:34.577Z,15.73
2023-04-22T16:30:04.266Z,15.70
2023-04-22T16:32:32.239Z,15.68
2023-04-22T16:35:00.253Z,15.63
2023-04-22T16:37:28.249Z,15.59
2023-04-22T16:39:56.700Z,15.54
2023-04-22T16:42:24.695Z,15.52
2023-04-22T16:44:52.669Z,15.53
2023-04-22T16:47:22.420Z,15.52
2023-04-22T16:49:51.345Z,15.52
2023-04-22T16:52:19.449Z,15.50
2023-04-22T16:54:47.378Z,15.49
2023-04-22T16:57:15.549Z,15.49
2023-04-22T16:59:43.450Z,15.49
2023-04-22T17:02:11.408Z,15.51
2023-04-22T17:04:40.803Z,15.49
2023-04-22T17:07:08.766Z,15.51
2023-04-22T17:09:36.682Z,15.49
2023-04-22T17:12:04.904Z,15.45
2023-04-22T17:14:32.832Z,15.41
2023-04-22T17:17:00.752Z,15.45
2023-04-22T17:19:28.845Z,15.43
2023-04-22T17:21:58.169Z,15.41
2023-04-22T17:24:26.099Z,15.44
2023-04-22T17:26:54.023Z,15.44
2023-04-22T17:29:23.224Z,15.42
2023-04-22T17:31:54.570Z,15.40
2023-04-22T17:34:22.521Z,15.42
2023-04-22T17:36:50.448Z,15.43
2023-04-22T17:39:19.735Z,15.41
2023-04-22T17:41:47.704Z,15.36
2023-04-22T17:44:15.622Z,15.35
2023-04-22T17:46:43.826Z,15.35
2023-04-22T17:49:11.786Z,15.33
2023-04-22T17:51:39.728Z,15.32
2023-04-22T17:54:07.711Z,15.30
2023-04-22T17:56:37.095Z,15.31
2023-04-22T17:59:05.007Z,15.30
2023-04-22T18:01:32.980Z,15.29
2023-04-22T18:04:01.137Z,15.27
2023-04-22T18:06:29.263Z,15.24
2023-04-22T18:08:57.254Z,15.27
2023-04-22T18:11:25.204Z,15.25
2023-04-22T18:13:54.514Z,15.23
2023-04-22T18:16:22.711Z,15.20
2023-04-22T18:18:50.714Z,15.18
2023-04-22T18:21:19.400Z,15.18
2023-04-22T18:23:56.488Z,15.18
2023-04-22T18:26:24.537Z,15.18
2023-04-22T18:28:52.604Z,15.18
2023-04-22T18:31:22.222Z,15.19
2023-04-22T18:33:50.239Z,15.22
2023-04-22T18:36:18.535Z,15.28
2023-04-22T18:38:46.544Z,15.28
2023-04-22T18:41:14.744Z,15.32
2023-04-22T18:43:42.680Z,15.31
2023-04-22T18:46:10.817Z,15.31
2023-04-22T18:48:41.761Z,15.30
2023-04-22T18:51:09.858Z,15.32
2023-04-22T18:53:37.793Z,15.31
2023-04-22T18:56:06.842Z,15.31
2023-04-22T18:58:34.775Z,15.27
2023-04-22T19:01:02.776Z,15.22
2023-04-22T19:03:30.960Z,15.16
2023-04-22T19:06:00.460Z,15.13
2023-04-22T19:08:28.648Z,15.10
2023-04-22T19:10:58.216Z,15.08
2023-04-22T19:13:29.743Z,15.08
2023-04-22T19:15:58.570Z,15.07
2023-04-22T19:18:26.667Z,15.06
2023-04-22T19:20:54.599Z,15.08
2023-04-22T19:23:24.108Z,15.04
2023-04-22T19:25:52.068Z,15.05
2023-04-22T19:28:19.989Z,15.03
2023-04-22T19:30:48.256Z,14.98
2023-04-22T19:33:16.362Z,14.87
2023-04-22T19:35:44.334Z,14.92
2023-04-22T19:38:16.186Z,14.90
2023-04-22T19:40:45.525Z,14.89
2023-04-22T19:43:13.548Z,14.88
2023-04-22T19:45:41.453Z,14.87
2023-04-22T19:48:10.175Z,14.86
2023-04-22T19:50:38.592Z,14.84
2023-04-22T19:53:06.927Z,14.84
2023-04-22T19:55:36.156Z,14.81
2023-04-22T19:58:05.697Z,14.80
2023-04-22T20:00:34.895Z,14.78
2023-04-22T20:03:04.243Z,14.76
2023-04-22T20:05:33.037Z,14.74
2023-04-22T20:08:01.764Z,14.74
2023-04-22T20:10:30.129Z,14.75
2023-04-22T20:12:58.464Z,14.74
2023-04-22T20:15:28.071Z,14.72
2023-04-22T20:17:56.436Z,14.72
2023-04-22T20:20:24.670Z,14.68
2023-04-22T20:22:53.230Z,14.69
2023-04-22T20:25:21.377Z,14.71
2023-04-22T20:27:50.383Z,14.71
2023-04-22T20:30:18.976Z,14.71
2023-04-22T20:32:48.670Z,14.72
2023-04-22T20:35:17.221Z,14.73
2023-04-22T20:37:46.246Z,14.74
2023-04-22T20:40:15.242Z,14.73
2023-04-22T20:42:43.357Z,14.73
2023-04-22T20:45:15.623Z,14.73
2023-04-22T20:47:44.189Z,14.74
2023-04-22T20:50:14.698Z,14.71
2023-04-22T20:52:43.304Z,14.67
2023-04-22T20:55:11.376Z,14.62
2023-04-22T20:57:39.321Z,14.56
2023-04-22T21:00:10.224Z,14.53
2023-04-22T21:02:38.482Z,14.51
2023-04-22T21:05:07.760Z,14.49
2023-04-22T21:07:37.438Z,14.48
2023-04-22T21:10:06.339Z,14.45
2023-04-22T21:12:34.936Z,14.48
2023-04-22T21:15:03.730Z,14.49
2023-04-22T21:17:32.343Z,14.52
2023-04-22T21:20:00.325Z,14.54
2023-04-22T21:22:28.426Z,14.55
2023-04-22T21:24:57.886Z,14.55
2023-04-22T21:27:26.372Z,14.60
2023-04-22T21:29:55.294Z,14.58
2023-04-22T21:32:23.396Z,14.59
2023-04-22T21:34:51.420Z,14.60
2023-04-22T21:37:19.384Z,14.63
2023-04-22T21:39:47.346Z,14.65
2023-04-22T21:42:16.671Z,14.65
2023-04-22T21:44:49.766Z,14.67
2023-04-22T21:47:18.120Z,14.67
2023-04-22T21:49:47.112Z,14.68
2023-04-22T21:52:15.310Z,14.68
2023-04-22T21:54:43.449Z,14.62
2023-04-22T21:57:11.677Z,14.58
2023-04-22T21:59:41.011Z,14.52
2023-04-22T22:02:09.028Z,14.50
2023-04-22T22:04:37.027Z,14.48
2023-04-22T22:07:04.992Z,14.44
2023-04-22T22:09:32.994Z,14.42
2023-04-22T22:12:01.523Z,14.45
2023-04-22T22:14:29.398Z,14.47
2023-04-22T22:16:59.140Z,14.45
2023-04-22T22:19:28.425Z,14.47
2023-04-22T22:21:56.320Z,14.39
2023-04-22T22:24:24.257Z,14.35
2023-04-22T22:26:52.224Z,14.32
2023-04-22T22:29:20.252Z,14.28
2023-04-22T22:31:48.191Z,14.25
2023-04-22T22:34:17.580Z,14.16
2023-04-22T22:36:45.566Z,14.13
2023-04-22T22:39:15.976Z,14.11
2023-04-22T22:41:44.234Z,14.11
2023-04-22T22:44:12.312Z,14.12
2023-04-22T22:46:41.100Z,14.11
2023-04-22T22:49:09.043Z,14.13
2023-04-22T22:51:38.497Z,14.16
2023-04-22T22:54:06.853Z,14.17
2023-04-22T22:56:34.974Z,14.23
2023-04-22T22:59:03.301Z,14.27
2023-04-22T23:01:31.283Z,14.33
2023-04-22T23:03:59.656Z,14.39
2023-04-22T23:06:28.230Z,14.49
2023-04-22T23:08:57.550Z,14.50
2023-04-22T23:11:25.690Z,14.56
2023-04-22T23:13:53.673Z,14.61
2023-04-22T23:16:22.268Z,14.62
2023-04-22T23:18:50.246Z,14.60
2023-04-22T23:21:18.216Z,14.55
2023-04-22T23:23:46.208Z,14.54
2023-04-22T23:26:16.055Z,14.55
2023-04-22T23:28:44.487Z,14.56
2023-04-22T23:31:12.487Z,14.50
2023-04-22T23:33:41.900Z,14.41
2023-04-22T23:36:10.510Z,14.37
2023-04-22T23:38:38.414Z,14.36
2023-04-22T23:41:06.478Z,14.32
2023-04-22T23:43:35.762Z,14.25
2023-04-22T23:46:03.918Z,14.18
2023-04-22T23:48:31.866Z,14.17
2023-04-22T23:50:59.838Z,14.17
2023-04-22T23:53:27.943Z,14.16
2023-04-22T23:55:56.664Z,14.19
2023-04-22T23:58:25.034Z,14.21
